createdAt,value
2019-03-26T00:02:59.413Z,97.40
2019-03-26T00:08:02.796Z,97.30
2019-03-26T00:13:06.180Z,97.50
2019-03-26T00:18:09.568Z,97.40
2019-03-26T00:23:12.956Z,97.40
2019-03-26T00:28:16.339Z,97.60
2019-03-26T00:33:19.723Z,97.80
2019-03-26T00:38:23.100Z,97.80
2019-03-26T00:43:26.495Z,97.80
2019-03-26T00:48:29.878Z,97.90
2019-03-26T00:53:33.259Z,98.00
2019-03-26T00:58:36.651Z,97.90
2019-03-26T01:03:40.044Z,98.00
2019-03-26T01:08:43.427Z,98.20
2019-03-26T01:13:46.811Z,98.10
2019-03-26T01:18:50.195Z,98.10
2019-03-26T01:23:53.584Z,98.30
2019-03-26T01:28:56.969Z,98.20
2019-03-26T01:34:00.420Z,98.20
2019-03-26T01:39:05.143Z,98.20
2019-03-26T01:44:08.530Z,98.40
2019-03-26T01:49:11.920Z,98.50
2019-03-26T01:54:15.317Z,98.60
2019-03-26T01:59:18.791Z,98.80
2019-03-26T02:04:22.159Z,99.00
2019-03-26T02:09:25.539Z,99.10
2019-03-26T02:14:28.948Z,99.20
2019-03-26T02:19:32.325Z,99.20
2019-03-26T02:24:35.779Z,99.20
2019-03-26T02:29:39.163Z,99.40
2019-03-26T02:34:42.548Z,99.40
2019-03-26T02:39:45.940Z,99.40
2019-03-26T02:44:49.322Z,99.50
2019-03-26T02:49:52.727Z,99.60
2019-03-26T02:54:56.121Z,99.50
2019-03-26T02:59:59.509Z,99.80
2019-03-26T03:05:02.886Z,99.90
2019-03-26T03:10:08.021Z,99.90
2019-03-26T03:15:11.630Z,99.90
2019-03-26T03:20:15.094Z,99.90
2019-03-26T03:25:18.473Z,99.90
2019-03-26T03:30:21.927Z,99.90
2019-03-26T03:35:25.493Z,99.90
2019-03-26T03:40:28.868Z,99.90
2019-03-26T03:45:32.391Z,99.90
2019-03-26T03:50:37.475Z,99.90
2019-03-26T03:55:40.925Z,99.90
2019-03-26T04:00:44.302Z,99.90
2019-03-26T04:05:47.684Z,99.90
2019-03-26T04:10:51.055Z,99.90
2019-03-26T04:15:54.484Z,99.90
2019-03-26T04:20:57.884Z,99.90
2019-03-26T04:26:01.278Z,99.90
2019-03-26T04:31:04.656Z,99.90
2019-03-26T04:36:24.150Z,99.90
2019-03-26T04:41:13.148Z,99.90
2019-03-26T04:46:16.524Z,99.90
2019-03-26T04:51:19.903Z,99.90
2019-03-26T04:56:23.288Z,99.90
2019-03-26T05:01:26.664Z,99.90
2019-03-26T05:06:37.829Z,99.90
2019-03-26T05:11:35.147Z,99.90
2019-03-26T05:16:38.521Z,99.90
2019-03-26T05:21:41.902Z,99.90
2019-03-26T05:26:45.274Z,99.90
2019-03-26T05:31:48.663Z,99.90
2019-03-26T05:36:52.082Z,99.90
2019-03-26T05:41:55.509Z,99.90
2019-03-26T05:47:01.542Z,99.90
2019-03-26T05:52:04.017Z,99.90
2019-03-26T05:57:07.540Z,99.90
2019-03-26T06:02:15.140Z,99.90
2019-03-26T06:07:16.030Z,99.90
2019-03-26T06:12:19.423Z,99.90
2019-03-26T06:17:22.814Z,99.90
2019-03-26T06:22:26.222Z,99.90
2019-03-26T06:27:29.640Z,99.90
2019-03-26T06:32:33.025Z,99.90
2019-03-26T06:37:36.480Z,99.90
2019-03-26T06:42:39.870Z,99.90
2019-03-26T06:47:43.255Z,99.90
2019-03-26T06:52:49.542Z,99.90
2019-03-26T06:57:52.924Z,99.90
2019-03-26T07:02:56.299Z,99.90
2019-03-26T07:07:59.689Z,99.90
2019-03-26T07:13:03.100Z,99.90
2019-03-26T07:18:06.491Z,99.90
2019-03-26T07:23:09.863Z,99.90
2019-03-26T07:28:13.243Z,99.90
2019-03-26T07:33:16.632Z,99.90
2019-03-26T07:38:20.006Z,99.90
2019-03-26T07:43:23.383Z,99.90
2019-03-26T07:48:26.767Z,99.90
2019-03-26T07:53:30.151Z,99.90
2019-03-26T07:58:33.541Z,99.90
2019-03-26T08:03:36.923Z,99.90
2019-03-26T08:08:40.860Z,99.90
2019-03-26T08:13:44.393Z,99.90
2019-03-26T08:18:47.752Z,99.90
2019-03-26T08:23:51.140Z,99.90
2019-03-26T08:28:54.514Z,99.90
2019-03-26T08:33:57.917Z,99.90
2019-03-26T08:39:01.322Z,99.90
2019-03-26T08:44:04.777Z,99.90
2019-03-26T08:49:08.160Z,99.90
2019-03-26T08:54:11.554Z,99.90
2019-03-26T08:59:14.939Z,99.90
2019-03-26T09:04:18.336Z,99.90
2019-03-26T09:09:21.716Z,99.90
2019-03-26T09:14:25.092Z,99.90
2019-03-26T09:19:28.475Z,99.90
2019-03-26T09:24:31.858Z,99.90
2019-03-26T09:29:35.243Z,99.90
2019-03-26T09:34:38.635Z,99.90
2019-03-26T09:39:42.015Z,99.90
2019-03-26T09:44:45.398Z,99.90
2019-03-26T09:49:48.775Z,99.90
2019-03-26T09:54:52.167Z,99.90
2019-03-26T09:59:55.549Z,99.90
2019-03-26T10:04:58.931Z,99.90
2019-03-26T10:10:02.578Z,99.40
2019-03-26T10:15:06.602Z,96.50
2019-03-26T10:20:10.229Z,96.00
2019-03-26T10:25:13.619Z,93.30
2019-03-26T10:30:20.086Z,91.70
2019-03-26T10:35:23.459Z,92.00
2019-03-26T10:40:31.318Z,89.30
2019-03-26T10:45:34.700Z,89.30
2019-03-26T10:50:38.083Z,88.40
2019-03-26T10:55:42.379Z,86.20
2019-03-26T11:00:45.792Z,85.20
2019-03-26T11:05:49.172Z,85.40
2019-03-26T11:10:52.568Z,82.00
2019-03-26T11:15:55.974Z,82.10
2019-03-26T11:21:03.324Z,82.10
2019-03-26T11:26:04.456Z,82.40
2019-03-26T11:31:07.844Z,81.80
2019-03-26T11:36:11.232Z,82.60
2019-03-26T11:41:14.611Z,80.80
2019-03-26T11:46:18.076Z,80.50
2019-03-26T11:51:21.474Z,80.50
2019-03-26T11:56:24.864Z,80.90
2019-03-26T12:01:28.268Z,80.60
2019-03-26T12:06:31.727Z,81.30
2019-03-26T12:11:35.175Z,82.00
2019-03-26T12:16:38.579Z,81.30
2019-03-26T12:21:41.971Z,81.20
2019-03-26T12:26:45.387Z,79.90
2019-03-26T12:31:48.753Z,79.40
2019-03-26T12:36:52.141Z,77.20
2019-03-26T12:41:55.543Z,76.90
2019-03-26T12:46:58.932Z,77.30
2019-03-26T12:52:02.338Z,76.90
2019-03-26T12:57:05.722Z,78.20
2019-03-26T13:02:09.116Z,78.00
2019-03-26T13:07:12.501Z,78.20
2019-03-26T13:12:15.909Z,76.50
2019-03-26T13:17:19.275Z,76.60
2019-03-26T13:22:22.657Z,76.00
2019-03-26T13:27:26.044Z,76.80
2019-03-26T13:32:29.431Z,77.50
2019-03-26T13:37:32.881Z,77.20
2019-03-26T13:42:36.262Z,77.50
2019-03-26T13:47:39.643Z,77.90
2019-03-26T13:52:43.024Z,77.30
2019-03-26T13:57:46.410Z,77.00
2019-03-26T14:02:49.791Z,76.20
2019-03-26T14:07:53.319Z,75.20
2019-03-26T14:12:56.694Z,76.50
2019-03-26T14:18:00.098Z,75.20
2019-03-26T14:23:03.467Z,77.10
2019-03-26T14:28:06.850Z,76.60
2019-03-26T14:33:10.307Z,76.00
2019-03-26T14:38:13.686Z,76.20
2019-03-26T14:43:17.072Z,76.20
2019-03-26T14:48:20.529Z,75.80
2019-03-26T14:53:23.950Z,76.20
2019-03-26T14:58:27.364Z,75.50
2019-03-26T15:03:30.753Z,75.50
2019-03-26T15:08:34.143Z,75.50
2019-03-26T15:13:37.540Z,74.90
2019-03-26T15:18:40.931Z,74.80
2019-03-26T15:23:44.327Z,74.70
2019-03-26T15:28:47.748Z,72.10
2019-03-26T15:33:51.133Z,72.30
2019-03-26T15:38:54.640Z,72.90
2019-03-26T15:43:58.020Z,73.00
2019-03-26T15:49:01.423Z,72.60
2019-03-26T15:54:04.880Z,72.10
2019-03-26T15:59:08.257Z,72.40
2019-03-26T16:04:11.641Z,72.90
2019-03-26T16:09:15.015Z,72.90
2019-03-26T16:14:18.401Z,72.70
2019-03-26T16:19:32.196Z,72.50
2019-03-26T16:24:26.889Z,73.40
2019-03-26T16:29:30.339Z,73.00
2019-03-26T16:34:33.722Z,72.20
2019-03-26T16:39:37.100Z,72.00
2019-03-26T16:44:40.471Z,71.70
2019-03-26T16:49:43.892Z,72.50
2019-03-26T16:54:47.285Z,71.60
2019-03-26T16:59:50.660Z,69.50
2019-03-26T17:04:54.079Z,68.80
2019-03-26T17:09:57.459Z,68.60
2019-03-26T17:15:00.845Z,68.40
2019-03-26T17:20:05.864Z,69.10
2019-03-26T17:25:09.790Z,69.50
2019-03-26T17:30:13.409Z,70.10
2019-03-26T17:35:16.867Z,70.60
2019-03-26T17:40:20.249Z,70.60
2019-03-26T17:45:23.624Z,70.30
2019-03-26T17:50:27.016Z,70.40
2019-03-26T17:55:30.415Z,70.30
2019-03-26T18:00:39.251Z,71.10
2019-03-26T18:05:42.658Z,71.30
2019-03-26T18:10:46.044Z,71.70
2019-03-26T18:15:49.424Z,72.40
2019-03-26T18:20:52.807Z,73.10
2019-03-26T18:25:56.374Z,73.50
2019-03-26T18:30:59.856Z,73.70
2019-03-26T18:36:05.103Z,73.80
2019-03-26T18:41:08.585Z,74.40
2019-03-26T18:46:11.983Z,74.70
2019-03-26T18:51:15.438Z,75.10
2019-03-26T18:56:19.788Z,75.50
2019-03-26T19:01:23.172Z,75.50
2019-03-26T19:06:27.308Z,76.10
2019-03-26T19:11:30.815Z,76.50
2019-03-26T19:16:34.198Z,76.50
2019-03-26T19:21:37.668Z,76.40
2019-03-26T19:26:41.294Z,76.60
2019-03-26T19:31:45.055Z,76.80
2019-03-26T19:36:48.503Z,76.70
2019-03-26T19:41:51.884Z,77.10
2019-03-26T19:46:55.553Z,77.60
2019-03-26T19:51:58.907Z,77.70
2019-03-26T19:57:02.287Z,78.00
2019-03-26T20:02:05.667Z,78.30
2019-03-26T20:07:09.052Z,78.60
2019-03-26T20:12:12.516Z,78.90
2019-03-26T20:17:15.900Z,78.90
2019-03-26T20:22:19.284Z,78.90
2019-03-26T20:27:22.668Z,79.10
2019-03-26T20:32:26.056Z,78.80
2019-03-26T20:37:29.427Z,78.90
2019-03-26T20:42:32.860Z,79.50
2019-03-26T20:47:36.639Z,79.00
2019-03-26T20:52:40.215Z,79.60
2019-03-26T20:57:43.909Z,80.10
2019-03-26T21:02:47.288Z,80.10
2019-03-26T21:07:50.672Z,80.40
2019-03-26T21:12:54.087Z,80.30
2019-03-26T21:17:57.504Z,80.10
2019-03-26T21:23:00.877Z,80.50
2019-03-26T21:28:04.423Z,80.10
2019-03-26T21:33:07.816Z,80.90
2019-03-26T21:38:11.283Z,81.00
2019-03-26T21:43:14.659Z,81.30
2019-03-26T21:48:18.042Z,81.80
2019-03-26T21:53:23.182Z,81.70
2019-03-26T21:58:26.548Z,82.10
2019-03-26T22:03:29.923Z,82.00
2019-03-26T22:08:33.309Z,82.60
2019-03-26T22:13:36.678Z,82.70
2019-03-26T22:18:40.061Z,83.20
2019-03-26T22:23:43.507Z,83.30
2019-03-26T22:28:46.891Z,83.10
2019-03-26T22:33:50.267Z,83.60
2019-03-26T22:38:53.642Z,84.60
2019-03-26T22:43:57.015Z,86.10
2019-03-26T22:49:00.398Z,86.40
2019-03-26T22:54:03.788Z,87.60
2019-03-26T22:59:07.167Z,87.00
2019-03-26T23:04:10.551Z,87.70
2019-03-26T23:09:13.948Z,89.30
2019-03-26T23:14:17.330Z,90.00
2019-03-26T23:19:20.729Z,90.20
2019-03-26T23:24:24.103Z,90.70
2019-03-26T23:29:27.484Z,90.50
2019-03-26T23:34:30.860Z,91.00
2019-03-26T23:39:34.250Z,91.50
2019-03-26T23:44:37.631Z,91.80
2019-03-26T23:49:41.015Z,92.10
2019-03-26T23:54:44.386Z,92.00
2019-03-26T23:59:47.759Z,92.50
